Time;durP1;ratioP1;P1;durP2;ratioP2;P2;SDS_P1;SDS_P2;PMS_P1;PMS_P2;Temp;Humidity;BMP_temperature;BMP_pressure;BME280_temperature;BME280_humidity;BME280_pressure;Samples;Min_cycle;Max_cycle;Signal;HPM_P1;HPM_P2
2022/10/28 00:02:26;;;;;;;6.23;2.13;;;;;;;15.88;87.09;101450.53;6000642;28;20214;-68
2022/10/28 00:05:21;;;;;;;7.53;2.60;;;;;;;15.91;86.63;101439.50;6001133;28;20474;-68
2022/10/28 00:08:17;;;;;;;5.87;2.30;;;;;;;15.99;86.60;101452.91;6001418;28;20031;-69
2022/10/28 00:11:17;;;;;;;6.07;2.70;;;;;;;15.90;86.88;101449.38;6000545;28;20050;-69
2022/10/28 00:14:13;;;;;;;7.18;2.47;;;;;;;15.82;87.41;101440.47;6001926;28;20489;-68
2022/10/28 00:17:09;;;;;;;5.60;2.53;;;;;;;15.84;87.28;101438.50;6001171;28;20479;-68
2022/10/28 00:20:04;;;;;;;13.97;2.50;;;;;;;15.77;88.00;101435.63;6001248;28;20051;-69
2022/10/28 00:23:00;;;;;;;10.70;2.78;;;;;;;15.71;87.81;101428.25;6001071;28;20130;-69
2022/10/28 00:26:12;;;;;;;7.77;2.27;;;;;;;15.54;88.84;101431.03;6001407;28;20038;-69
2022/10/28 00:29:09;;;;;;;5.45;2.60;;;;;;;15.54;89.02;101433.69;6000903;28;20058;-68
2022/10/28 00:32:05;;;;;;;5.78;2.10;;;;;;;15.37;89.53;101425.56;5999465;28;20097;-69
2022/10/28 00:35:00;;;;;;;7.83;2.30;;;;;;;15.40;89.73;101438.63;6001313;28;20458;-69
2022/10/28 00:37:56;;;;;;;5.23;2.13;;;;;;;15.23;90.44;101442.19;6001279;28;20132;-68
2022/10/28 00:40:52;;;;;;;5.20;2.00;;;;;;;15.07;91.82;101442.09;6000768;28;20390;-69
2022/10/28 00:43:49;;;;;;;7.00;2.27;;;;;;;14.99;92.10;101446.53;6000747;28;20042;-69
2022/10/28 00:46:47;;;;;;;7.50;2.50;;;;;;;14.79;93.42;101449.41;6000619;28;20051;-69
2022/10/28 00:49:44;;;;;;;5.55;2.10;;;;;;;14.74;94.05;101450.84;5999457;28;20534;-69
2022/10/28 00:52:40;;;;;;;5.35;1.83;;;;;;;14.62;94.69;101452.09;5999822;28;20071;-68
2022/10/28 00:55:36;;;;;;;4.70;2.17;;;;;;;14.76;94.92;101456.88;6000280;28;20170;-68
2022/10/28 00:58:32;;;;;;;7.18;2.25;;;;;;;14.97;95.06;101464.56;5997466;28;20065;-69
2022/10/28 01:01:27;;;;;;;9.30;2.58;;;;;;;15.24;93.17;101467.09;5992758;28;20039;-69
2022/10/28 01:04:22;;;;;;;9.13;2.10;;;;;;;15.58;90.97;101473.31;5997613;28;20666;-69
2022/10/28 01:07:18;;;;;;;7.38;2.60;;;;;;;15.66;89.71;101468.00;5997691;28;20070;-69
2022/10/28 01:10:14;;;;;;;7.47;2.50;;;;;;;15.85;88.63;101472.25;5995094;28;20049;-69
2022/10/28 01:13:21;;;;;;;6.72;2.25;;;;;;;15.99;87.55;101485.84;5997460;28;20035;-68
2022/10/28 01:16:34;;;;;;;6.55;2.45;;;;;;;15.99;87.71;101463.63;5997548;28;20027;-69
2022/10/28 01:19:39;;;;;;;8.55;2.72;;;;;;;16.15;86.78;101460.13;5996169;28;20035;-69
2022/10/28 01:22:42;;;;;;;7.18;2.28;;;;;;;16.23;86.45;101461.00;5996588;28;20045;-68
2022/10/28 01:25:59;;;;;;;9.40;2.30;;;;;;;16.36;85.35;101463.22;5995998;28;20054;-69
2022/10/28 01:29:24;;;;;;;7.53;2.58;;;;;;;16.40;85.20;101457.34;5989834;28;20113;-69
2022/10/28 01:32:30;;;;;;;9.63;2.67;;;;;;;16.49;84.81;101466.25;5996790;28;20704;-68
2022/10/28 01:35:33;;;;;;;13.18;2.88;;;;;;;16.40;85.31;101453.84;5995431;28;20039;-69
2022/10/28 01:38:35;;;;;;;8.82;2.33;;;;;;;16.40;85.45;101456.50;5995796;28;20632;-69
2022/10/28 01:41:42;;;;;;;9.05;2.58;;;;;;;16.43;85.34;101451.66;5995135;28;20035;-69
2022/10/28 01:44:41;;;;;;;9.30;2.38;;;;;;;16.48;84.76;101449.34;5996802;28;20674;-69
2022/10/28 01:47:42;;;;;;;7.97;2.50;;;;;;;16.38;84.61;101426.41;5997201;28;20081;-68
2022/10/28 01:50:44;;;;;;;6.45;2.30;;;;;;;16.53;84.03;101441.66;5994400;28;20027;-68
2022/10/28 01:53:42;;;;;;;8.65;2.25;;;;;;;16.52;84.16;101439.94;5993007;28;20034;-69
2022/10/28 01:56:40;;;;;;;7.25;2.47;;;;;;;16.64;83.06;101427.09;5991533;28;20129;-69
2022/10/28 01:59:37;;;;;;;6.90;2.55;;;;;;;16.67;82.51;101418.72;5994998;28;20050;-69
2022/10/28 02:02:33;;;;;;;5.63;2.13;;;;;;;16.69;82.59;101430.09;5994630;28;20113;-69
2022/10/28 02:05:36;;;;;;;4.60;2.40;;;;;;;16.65;82.29;101415.41;5994794;28;20038;-69
2022/10/28 02:08:34;;;;;;;8.20;2.28;;;;;;;16.64;82.76;101421.75;5996058;28;20042;-69
2022/10/28 02:11:50;;;;;;;5.95;2.80;;;;;;;16.74;82.12;101421.59;5994759;28;20063;-68
2022/10/28 02:15:30;;;;;;;6.82;2.60;;;;;;;16.81;81.82;101399.31;5996035;28;20046;-68
2022/10/28 02:18:37;;;;;;;8.43;2.47;;;;;;;16.96;80.88;101381.50;5980764;28;20047;-68
2022/10/28 02:21:56;;;;;;;9.20;2.35;;;;;;;16.94;80.87;101386.22;5995614;28;20741;-69
2022/10/28 02:24:59;;;;;;;9.02;4.80;;;;;;;16.91;81.01;101417.88;5986916;28;20359;-69
2022/10/28 02:28:16;;;;;;;10.43;2.40;;;;;;;16.87;80.95;101430.78;5985136;28;20070;-68
2022/10/28 02:31:31;;;;;;;4.40;2.28;;;;;;;16.91;80.85;101424.06;5992511;28;20031;-68
2022/10/28 02:34:30;;;;;;;6.45;2.30;;;;;;;16.79;81.12;101395.97;5987266;28;20054;-69
2022/10/28 02:37:29;;;;;;;8.88;2.50;;;;;;;16.73;81.51;101403.84;5989655;28;20030;-69
2022/10/28 02:40:26;;;;;;;7.57;2.30;;;;;;;16.68;81.95;101404.34;5993661;28;20114;-69
2022/10/28 02:43:23;;;;;;;5.68;2.70;;;;;;;16.54;82.64;101402.34;5996118;28;20489;-69
2022/10/28 02:46:20;;;;;;;9.88;2.60;;;;;;;16.41;83.29;101386.75;5978535;28;20113;-69
2022/10/28 02:49:15;;;;;;;7.95;3.53;;;;;;;16.24;84.00;101381.53;5995333;28;20035;-68
2022/10/28 02:52:11;;;;;;;4.83;2.30;;;;;;;16.19;84.08;101387.41;5995601;28;20031;-68
2022/10/28 02:55:07;;;;;;;5.32;2.40;;;;;;;16.15;84.95;101391.41;5996009;28;20053;-69
2022/10/28 02:58:04;;;;;;;8.00;2.65;;;;;;;16.10;84.73;101380.34;6000355;28;20038;-68
2022/10/28 03:00:59;;;;;;;6.30;2.28;;;;;;;16.09;85.31;101378.69;5993837;28;20086;-69
2022/10/28 03:03:54;;;;;;;5.47;2.33;;;;;;;16.00;85.53;101385.03;6000121;28;20497;-68
2022/10/28 03:06:49;;;;;;;8.37;2.77;;;;;;;15.99;85.83;101384.19;6000752;28;20027;-68
2022/10/28 03:09:45;;;;;;;5.57;2.57;;;;;;;15.92;86.04;101360.94;5999778;28;20980;-68
2022/10/28 03:12:40;;;;;;;5.90;2.33;;;;;;;16.02;85.87;101370.50;5999143;28;20557;-69
2022/10/28 03:15:35;;;;;;;8.47;2.43;;;;;;;16.09;85.30;101376.84;5999638;28;20039;-68
2022/10/28 03:18:31;;;;;;;8.00;3.03;;;;;;;16.12;84.98;101359.63;5998980;28;20453;-68
2022/10/28 03:21:26;;;;;;;7.73;2.50;;;;;;;16.21;84.62;101357.78;5999973;28;20038;-68
2022/10/28 03:24:21;;;;;;;11.70;2.97;;;;;;;16.14;84.67;101354.97;6000386;28;20097;-68
2022/10/28 03:27:17;;;;;;;7.57;2.40;;;;;;;16.04;84.71;101338.19;6000481;28;20035;-68
2022/10/28 03:30:13;;;;;;;6.93;2.53;;;;;;;16.07;85.06;101337.88;5998929;28;20530;-68
2022/10/28 03:33:08;;;;;;;10.68;3.00;;;;;;;16.04;85.03;101347.06;5999371;28;20041;-68
2022/10/28 03:36:04;;;;;;;12.27;2.80;;;;;;;16.08;84.84;101340.41;5999227;28;20467;-68
2022/10/28 03:38:59;;;;;;;8.88;3.38;;;;;;;16.24;84.16;101326.19;5999445;28;20114;-69
2022/10/28 03:41:54;;;;;;;7.17;2.60;;;;;;;16.31;83.03;101311.09;5999314;28;20026;-68
2022/10/28 03:44:50;;;;;;;8.23;2.60;;;;;;;16.38;82.60;101324.66;5999332;28;20278;-68
2022/10/28 03:47:45;;;;;;;4.10;2.20;;;;;;;16.34;83.02;101340.22;5999054;28;20096;-68
2022/10/28 03:50:40;;;;;;;5.43;2.50;;;;;;;16.29;83.19;101339.91;5998392;28;20321;-68
2022/10/28 03:53:36;;;;;;;9.77;2.63;;;;;;;16.31;83.14;101356.63;5998766;28;20043;-68
2022/10/28 03:56:31;;;;;;;6.32;2.25;;;;;;;16.19;84.20;101357.97;5999428;28;20320;-68
2022/10/28 03:59:27;;;;;;;7.33;2.40;;;;;;;16.04;84.49;101348.91;5998420;28;20039;-68
2022/10/28 04:02:22;;;;;;;6.10;2.60;;;;;;;16.04;84.87;101348.91;5998403;28;20038;-67
2022/10/28 04:05:18;;;;;;;10.53;2.83;;;;;;;15.96;85.07;101338.19;5998345;28;20286;-68
2022/10/28 04:08:15;;;;;;;7.38;2.60;;;;;;;15.84;85.33;101336.84;5998768;28;20730;-68
2022/10/28 04:11:10;;;;;;;8.15;2.80;;;;;;;15.77;85.74;101344.69;5998188;28;20037;-68
2022/10/28 04:14:05;;;;;;;7.40;2.87;;;;;;;15.72;86.15;101324.78;5998944;28;20031;-68
2022/10/28 04:17:01;;;;;;;5.70;2.60;;;;;;;15.81;86.25;101342.53;5998870;28;20387;-68
2022/10/28 04:19:56;;;;;;;9.10;3.05;;;;;;;15.80;86.42;101352.38;5997433;28;20114;-68
2022/10/28 04:22:53;;;;;;;8.43;3.10;;;;;;;15.75;86.00;101343.19;5997193;28;20039;-68
2022/10/28 04:25:53;;;;;;;10.90;2.65;;;;;;;15.89;85.82;101359.44;5998611;28;20034;-68
2022/10/28 04:28:48;;;;;;;9.38;2.70;;;;;;;15.85;85.92;101343.88;5998594;28;20387;-68
2022/10/28 04:31:43;;;;;;;7.17;2.60;;;;;;;16.02;85.12;101340.22;5999049;28;20023;-68
2022/10/28 04:34:38;;;;;;;10.67;4.60;;;;;;;16.22;84.25;101346.94;5999200;28;20110;-68
2022/10/28 04:37:34;;;;;;;8.37;3.00;;;;;;;16.30;83.84;101327.34;6000294;28;20741;-68
2022/10/28 04:40:29;;;;;;;7.90;2.67;;;;;;;16.22;83.61;101308.63;5988501;28;20037;-68
2022/10/28 04:43:24;;;;;;;8.77;2.65;;;;;;;16.28;83.56;101316.78;6000576;28;20050;-68
2022/10/28 04:46:20;;;;;;;10.63;2.63;;;;;;;16.24;83.45;101302.09;6000669;28;20045;-68
2022/10/28 04:49:15;;;;;;;12.07;2.90;;;;;;;16.38;83.34;101314.81;6000514;28;20033;-68
2022/10/28 04:52:11;;;;;;;7.10;3.00;;;;;;;16.34;83.42;101312.59;5999578;28;20790;-68
2022/10/28 04:55:06;;;;;;;8.60;2.90;;;;;;;16.41;83.17;101308.28;6000590;28;20027;-68
2022/10/28 04:58:02;;;;;;;10.05;3.90;;;;;;;16.61;82.54;101310.44;6000531;28;20618;-68
2022/10/28 05:00:57;;;;;;;6.10;2.10;;;;;;;16.71;81.66;101315.63;6000645;28;20030;-68
2022/10/28 05:03:52;;;;;;;8.93;2.13;;;;;;;16.83;80.88;101294.63;6000695;28;20069;-67
2022/10/28 05:06:48;;;;;;;6.03;2.17;;;;;;;16.85;80.50;101311.41;6000303;28;20274;-70
2022/10/28 05:09:43;;;;;;;7.03;2.60;;;;;;;16.84;80.66;101304.38;6000427;28;20043;-70
2022/10/28 05:12:42;;;;;;;12.93;3.00;;;;;;;16.83;80.84;101292.81;5999697;28;20050;-68
2022/10/28 05:15:37;;;;;;;8.02;2.70;;;;;;;16.89;80.31;101285.91;6000303;28;20039;-68
2022/10/28 05:18:34;;;;;;;8.07;3.30;;;;;;;16.98;80.19;101299.13;5999495;28;20039;-68
2022/10/28 05:21:29;;;;;;;10.40;2.67;;;;;;;17.01;79.84;101289.91;5999219;28;20042;-68
2022/10/28 05:24:25;;;;;;;9.53;2.83;;;;;;;17.06;79.81;101282.19;6000477;28;20042;-68
2022/10/28 05:27:20;;;;;;;13.70;3.53;;;;;;;16.99;79.50;101260.59;5999609;28;20042;-67
2022/10/28 05:30:15;;;;;;;8.77;2.43;;;;;;;17.08;79.32;101288.19;5999664;28;20676;-68
2022/10/28 05:33:11;;;;;;;9.10;2.80;;;;;;;17.00;79.63;101274.81;6000026;28;20054;-68
2022/10/28 05:36:07;;;;;;;11.87;2.97;;;;;;;16.97;79.61;101278.69;5999768;28;20031;-68
2022/10/28 05:39:03;;;;;;;9.27;3.00;;;;;;;16.99;79.44;101265.09;5999881;28;20301;-68
2022/10/28 05:41:59;;;;;;;15.32;3.85;;;;;;;16.90;79.63;101260.81;5998761;28;20049;-68
2022/10/28 05:44:54;;;;;;;10.87;4.50;;;;;;;16.84;79.90;101261.50;5999990;28;20043;-68
2022/10/28 05:47:49;;;;;;;14.03;4.60;;;;;;;16.86;79.88;101259.47;5999937;28;20086;-68
2022/10/28 05:50:45;;;;;;;13.70;4.93;;;;;;;16.85;80.00;101250.59;5998798;28;20035;-68
2022/10/28 05:53:41;;;;;;;10.93;4.00;;;;;;;16.93;80.00;101265.81;5999297;28;20094;-68
2022/10/28 05:56:36;;;;;;;10.10;3.70;;;;;;;16.75;80.74;101271.41;5999003;28;20030;-68
2022/10/28 05:59:31;;;;;;;12.07;3.63;;;;;;;16.55;81.66;101262.91;5998767;28;20157;-68
2022/10/28 06:02:27;;;;;;;11.80;4.53;;;;;;;16.34;82.56;101253.72;5998282;28;20326;-68
2022/10/28 06:05:22;;;;;;;12.23;3.27;;;;;;;16.24;83.49;101253.91;5998986;28;20038;-68
2022/10/28 06:08:17;;;;;;;13.20;3.70;;;;;;;16.20;83.34;101251.75;5998631;28;20313;-68
2022/10/28 06:11:12;;;;;;;11.87;3.20;;;;;;;16.07;84.39;101246.91;5998277;28;20040;-68
2022/10/28 06:14:08;;;;;;;11.00;3.10;;;;;;;16.01;84.40;101244.88;5999241;28;20027;-68
2022/10/28 06:17:03;;;;;;;11.40;3.93;;;;;;;16.04;84.83;101260.63;5991242;28;20525;-67
2022/10/28 06:19:59;;;;;;;12.88;3.90;;;;;;;15.93;84.55;101255.59;5997002;28;20469;-68
2022/10/28 06:22:55;;;;;;;16.03;5.07;;;;;;;15.74;85.47;101245.22;5998332;28;20034;-68
2022/10/28 06:25:55;;;;;;;9.50;3.40;;;;;;;15.77;85.60;101250.25;5998277;28;20270;-68
2022/10/28 06:28:50;;;;;;;15.55;3.50;;;;;;;15.80;85.92;101265.97;5997471;28;20031;-68
2022/10/28 06:31:46;;;;;;;10.33;2.97;;;;;;;15.77;85.85;101260.94;5997730;28;20046;-69
2022/10/28 06:34:41;;;;;;;11.53;3.27;;;;;;;15.95;85.35;101270.47;5998529;28;20047;-68
2022/10/28 06:37:36;;;;;;;7.97;2.40;;;;;;;15.94;85.35;101273.34;5998835;28;20031;-69
2022/10/28 06:40:32;;;;;;;7.45;2.60;;;;;;;16.00;85.17;101278.03;5997805;28;20041;-68
2022/10/28 06:43:27;;;;;;;8.00;2.63;;;;;;;16.05;84.12;101255.13;5998223;28;20525;-68
2022/10/28 06:46:23;;;;;;;9.60;2.97;;;;;;;16.08;84.01;101270.84;5998186;28;20714;-68
2022/10/28 06:49:18;;;;;;;8.85;2.83;;;;;;;16.32;83.37;101278.00;5998190;28;20479;-68
2022/10/28 06:52:13;;;;;;;10.73;2.65;;;;;;;16.38;83.03;101280.00;5997751;28;20121;-68
2022/10/28 06:55:09;;;;;;;6.57;2.27;;;;;;;16.39;82.64;101284.34;5997646;28;20026;-68
2022/10/28 06:58:04;;;;;;;6.97;2.50;;;;;;;16.52;82.18;101276.59;5998521;28;20468;-68
2022/10/28 07:01:04;;;;;;;7.97;2.40;;;;;;;16.52;81.79;101273.94;5997919;28;20033;-68
2022/10/28 07:03:59;;;;;;;6.95;2.35;;;;;;;16.64;81.87;101282.47;5998025;28;20085;-68
2022/10/28 07:06:55;;;;;;;6.53;2.20;;;;;;;16.59;81.42;101274.97;5998057;28;20038;-68
2022/10/28 07:09:50;;;;;;;7.20;2.25;;;;;;;16.69;81.30;101273.94;5998331;28;20711;-68
2022/10/28 07:12:46;;;;;;;7.10;2.50;;;;;;;16.78;80.73;101278.25;5997770;28;20030;-68
2022/10/28 07:15:41;;;;;;;6.03;2.42;;;;;;;16.85;80.89;101300.69;5998065;28;20027;-68
2022/10/28 07:18:37;;;;;;;4.47;1.97;;;;;;;16.90;80.63;101291.13;5990036;28;20039;-68
2022/10/28 07:21:32;;;;;;;13.33;2.47;;;;;;;17.00;80.25;101288.22;5996333;28;20110;-68
2022/10/28 07:24:27;;;;;;;6.57;2.25;;;;;;;17.34;79.13;101301.31;5998320;28;20430;-68
2022/10/28 07:27:23;;;;;;;8.23;2.17;;;;;;;17.70;77.24;101292.56;5998321;28;20089;-68
2022/10/28 07:30:18;;;;;;;7.67;2.20;;;;;;;17.81;75.90;101289.47;5997532;28;20417;-68
2022/10/28 07:33:13;;;;;;;14.67;7.73;;;;;;;18.00;75.70;101296.22;5997899;28;20082;-68
2022/10/28 07:36:09;;;;;;;7.77;2.63;;;;;;;18.23;74.51;101293.50;5997855;28;20035;-68
2022/10/28 07:39:05;;;;;;;10.48;3.50;;;;;;;18.40;74.27;101301.22;5994461;28;20034;-68
2022/10/28 07:42:00;;;;;;;8.90;2.83;;;;;;;18.45;73.05;101292.63;5999637;28;20050;-68
2022/10/28 07:44:55;;;;;;;8.57;2.45;;;;;;;18.39;73.28;101290.69;6002031;28;20263;-68
2022/10/28 07:47:51;;;;;;;6.38;2.20;;;;;;;18.59;73.32;101299.88;6001176;28;20031;-68
2022/10/28 07:50:46;;;;;;;7.22;2.67;;;;;;;18.61;73.97;101303.25;5988943;28;20152;-68
2022/10/28 07:53:42;;;;;;;8.97;2.10;;;;;;;18.69;73.31;101302.31;5998669;28;20097;-68
2022/10/28 07:56:37;;;;;;;4.32;2.30;;;;;;;18.80;72.58;101302.72;6002039;28;20537;-68
2022/10/28 07:59:32;;;;;;;6.23;2.10;;;;;;;18.80;72.12;101297.34;6000690;28;20042;-68
2022/10/28 08:02:28;;;;;;;7.07;2.30;;;;;;;19.10;71.44;101298.16;5999942;28;20077;-69
2022/10/28 08:05:23;;;;;;;6.97;2.53;;;;;;;19.25;70.91;101292.72;6000590;28;20062;-68
2022/10/28 08:08:18;;;;;;;6.87;2.27;;;;;;;19.45;70.30;101291.16;6001525;28;20118;-68
2022/10/28 08:11:17;;;;;;;7.13;2.33;;;;;;;19.51;69.50;101285.03;6000941;28;20039;-68
2022/10/28 08:14:13;;;;;;;8.15;2.70;;;;;;;19.56;69.48;101298.75;5999186;28;20430;-68
2022/10/28 08:17:08;;;;;;;12.02;2.60;;;;;;;19.65;68.96;101297.56;5996935;28;20035;-68
2022/10/28 08:20:05;;;;;;;6.17;2.27;;;;;;;19.85;69.04;101305.88;5997285;28;20043;-68
2022/10/28 08:23:00;;;;;;;6.80;2.13;;;;;;;19.82;69.78;101307.09;5998052;28;20035;-69
2022/10/28 08:25:55;;;;;;;7.37;2.40;;;;;;;19.98;68.60;101312.22;6000520;28;20031;-68
2022/10/28 08:28:51;;;;;;;8.23;2.60;;;;;;;19.93;69.09;101306.56;5999958;28;20051;-68
2022/10/28 08:31:47;;;;;;;8.45;2.28;;;;;;;20.20;67.98;101310.34;5990958;28;20035;-68
2022/10/28 08:34:42;;;;;;;6.03;2.47;;;;;;;20.20;67.01;101292.31;5987365;28;20027;-68
2022/10/28 08:37:37;;;;;;;5.32;2.20;;;;;;;20.38;66.95;101299.97;5996310;28;20030;-68
2022/10/28 08:40:43;;;;;;;7.57;2.40;;;;;;;20.38;65.71;101289.19;5999499;28;20038;-68
2022/10/28 08:44:03;;;;;;;9.85;2.40;;;;;;;20.60;66.02;101300.75;5991807;28;20110;-68
2022/10/28 08:47:08;;;;;;;10.77;2.90;;;;;;;20.67;65.25;101285.44;5999635;28;20078;-68
2022/10/28 08:50:30;;;;;;;5.80;1.98;;;;;;;20.66;64.76;101297.25;5998696;28;20034;-68
2022/10/28 08:53:31;;;;;;;9.38;2.40;;;;;;;20.66;65.65;101281.91;5992218;28;20054;-68
2022/10/28 08:56:33;;;;;;;7.68;2.38;;;;;;;20.92;62.84;101293.91;5998667;28;20481;-68
2022/10/28 08:59:36;;;;;;;8.82;2.55;;;;;;;20.98;62.90;101307.41;5998240;28;20482;-67
2022/10/28 09:02:43;;;;;;;7.95;2.42;;;;;;;21.06;62.75;101291.06;5998688;28;20042;-68
2022/10/28 09:05:40;;;;;;;8.15;2.38;;;;;;;20.90;62.81;101287.88;5998891;28;20049;-68
2022/10/28 09:08:41;;;;;;;7.03;2.22;;;;;;;20.94;62.19;101284.56;5999518;28;20049;-68
2022/10/28 09:12:12;;;;;;;8.40;2.63;;;;;;;20.98;62.73;101302.00;5997871;28;20034;-68
2022/10/28 09:15:27;;;;;;;10.00;2.10;;;;;;;21.19;62.32;101299.25;5987631;28;20051;-68
2022/10/28 09:18:26;;;;;;;7.53;1.95;;;;;;;21.33;61.93;101303.66;5998616;28;20034;-68
2022/10/28 09:21:34;;;;;;;6.40;2.33;;;;;;;21.27;61.31;101307.19;5999142;28;20544;-68
2022/10/28 09:24:43;;;;;;;7.05;1.90;;;;;;;21.11;62.49;101307.53;5999714;28;20066;-68
2022/10/28 09:27:57;;;;;;;17.60;2.58;;;;;;;20.93;62.78;101304.47;5998765;28;20039;-68
2022/10/28 09:31:01;;;;;;;7.30;2.30;;;;;;;20.67;63.50;101305.16;5998773;28;20031;-69
2022/10/28 09:34:12;;;;;;;8.05;2.45;;;;;;;20.72;63.74;101296.47;5998773;28;20125;-68
2022/10/28 09:37:29;;;;;;;8.70;2.53;;;;;;;21.04;63.09;101292.28;5993076;28;20031;-68
2022/10/28 09:40:26;;;;;;;7.68;2.17;;;;;;;21.21;62.82;101301.75;5998306;28;20034;-68
2022/10/28 09:43:29;;;;;;;9.05;2.10;;;;;;;21.57;61.42;101286.09;5998638;28;20027;-68
2022/10/28 09:46:26;;;;;;;9.63;2.17;;;;;;;21.93;60.77;101280.41;5998944;28;20035;-68
2022/10/28 09:49:33;;;;;;;9.98;2.40;;;;;;;22.05;59.19;101286.84;5998823;28;20066;-67
2022/10/28 09:52:42;;;;;;;8.88;2.30;;;;;;;22.21;59.39;101283.72;5998149;28;20168;-68
2022/10/28 09:55:37;;;;;;;9.88;2.53;;;;;;;22.28;58.89;101276.47;5998258;28;20546;-67
2022/10/28 09:58:33;;;;;;;11.00;2.73;;;;;;;22.15;59.58;101265.63;5998663;28;20027;-68
2022/10/28 10:01:32;;;;;;;9.32;2.00;;;;;;;22.13;59.09;101270.41;5997614;28;20303;-68
2022/10/28 10:04:30;;;;;;;9.27;2.65;;;;;;;21.96;59.97;101263.75;5998939;28;20041;-69
2022/10/28 10:07:42;;;;;;;10.05;2.47;;;;;;;22.05;60.23;101267.09;5990616;28;20371;-68
2022/10/28 10:10:59;;;;;;;8.57;2.38;;;;;;;22.30;59.19;101270.84;5986941;28;20505;-68
2022/10/28 10:13:57;;;;;;;10.60;2.55;;;;;;;22.56;58.49;101259.16;5979719;28;20469;-68
2022/10/28 10:17:04;;;;;;;8.88;2.35;;;;;;;22.50;58.83;101250.84;5997345;28;20038;-69
2022/10/28 10:20:09;;;;;;;6.40;2.28;;;;;;;22.76;58.17;101276.19;5999186;28;20031;-68
2022/10/28 10:23:21;;;;;;;11.13;2.75;;;;;;;22.91;57.85;101271.38;5998615;28;20035;-68
2022/10/28 10:26:16;;;;;;;10.40;2.63;;;;;;;23.36;56.54;101264.09;5998847;28;20466;-68
2022/10/28 10:29:12;;;;;;;6.60;2.30;;;;;;;23.54;55.56;101248.81;5998572;28;20042;-69
2022/10/28 10:32:17;;;;;;;11.35;2.70;;;;;;;23.90;54.10;101267.13;5998404;28;20050;-69
2022/10/28 10:35:12;;;;;;;12.27;2.47;;;;;;;23.97;53.41;101272.50;5997543;28;20041;-68
2022/10/28 10:38:13;;;;;;;9.97;3.07;;;;;;;23.92;53.47;101256.91;5998998;28;20409;-68
2022/10/28 10:41:09;;;;;;;8.02;2.17;;;;;;;23.81;53.69;101240.53;5998481;28;20023;-69
2022/10/28 10:44:19;;;;;;;9.87;2.30;;;;;;;24.03;53.07;101252.63;5997357;28;20023;-68
2022/10/28 10:47:16;;;;;;;6.53;2.00;;;;;;;24.00;53.24;101248.50;5997172;28;20282;-68
2022/10/28 10:50:21;;;;;;;8.38;2.22;;;;;;;23.99;52.85;101235.19;5997209;28;20121;-69
2022/10/28 10:53:23;;;;;;;12.10;2.42;;;;;;;24.08;50.63;101250.94;5998411;28;20034;-67
2022/10/28 10:56:23;;;;;;;8.35;2.45;;;;;;;23.95;50.67;101228.53;5997484;28;20041;-68
2022/10/28 10:59:22;;;;;;;7.45;2.30;;;;;;;23.94;50.82;101226.88;5997583;28;20043;-68
2022/10/28 11:02:31;;;;;;;11.27;2.10;;;;;;;23.73;50.90;101235.38;5997258;28;20121;-69
2022/10/28 11:05:27;;;;;;;14.38;2.97;;;;;;;23.62;51.40;101237.72;5997652;28;20035;-68
2022/10/28 11:08:33;;;;;;;7.32;2.33;;;;;;;23.48;51.68;101236.16;5998661;28;20062;-69
2022/10/28 11:11:36;;;;;;;9.27;2.38;;;;;;;23.14;53.20;101236.53;5996712;28;20038;-69
2022/10/28 11:14:31;;;;;;;8.52;2.45;;;;;;;23.15;53.31;101240.91;5997387;28;20035;-69
2022/10/28 11:17:29;;;;;;;7.50;2.30;;;;;;;23.06;53.35;101223.22;6001303;28;20489;-68
2022/10/28 11:20:49;;;;;;;7.72;2.60;;;;;;;23.06;54.32;101226.78;6002518;28;20039;-68
2022/10/28 11:23:55;;;;;;;6.97;2.22;;;;;;;23.00;54.47;101229.50;6002475;28;20495;-69
2022/10/28 11:27:26;;;;;;;10.82;2.33;;;;;;;22.89;55.37;101211.22;6001856;28;20138;-69
2022/10/28 11:30:25;;;;;;;;;;;;;;;22.97;55.40;101224.50;5998171;28;20554;-68
2022/10/28 11:33:22;;;;;;;11.07;2.67;;;;;;;;;;5997707;28;19918;-68
2022/10/28 11:36:33;;;;;;;12.90;2.55;;;;;;;22.83;55.73;101206.69;6001568;28;20042;-68
2022/10/28 11:39:55;;;;;;;8.73;2.15;;;;;;;22.78;55.65;101220.00;6002362;28;20038;-68
2022/10/28 11:43:24;;;;;;;5.75;1.92;;;;;;;22.70;56.44;101212.97;5979865;28;20109;-68
2022/10/28 11:46:50;;;;;;;6.85;2.20;;;;;;;22.83;56.86;101214.81;6002253;28;20107;-68
2022/10/28 11:50:12;;;;;;;11.00;2.15;;;;;;;22.95;55.60;101215.78;5991206;28;20057;-69
2022/10/28 11:53:25;;;;;;;9.30;2.60;;;;;;;22.97;55.98;101208.28;6000323;28;20035;-68
2022/10/28 11:56:40;;;;;;;11.68;2.78;;;;;;;22.97;55.20;101214.53;6002132;28;20489;-68
2022/10/28 11:59:39;;;;;;;10.15;1.85;;;;;;;22.96;55.23;101207.47;6000951;28;20038;-68
2022/10/28 12:03:17;;;;;;;13.93;2.70;;;;;;;22.88;55.38;101209.59;6000270;28;20081;-68
2022/10/28 12:06:30;;;;;;;6.60;2.67;;;;;;;22.91;55.84;101206.47;5998412;28;20046;-68
2022/10/28 12:09:53;;;;;;;9.07;2.85;;;;;;;22.94;55.61;101206.00;5994445;28;20142;-68
2022/10/28 12:13:11;;;;;;;8.20;2.45;;;;;;;22.96;55.07;101201.22;5999748;28;20418;-69
2022/10/28 12:16:25;;;;;;;8.88;2.22;;;;;;;23.02;55.27;101190.34;6001434;28;20031;-68
2022/10/28 12:19:21;;;;;;;6.47;1.98;;;;;;;23.20;54.95;101178.00;6001603;28;20037;-68
2022/10/28 12:22:30;;;;;;;12.38;3.20;;;;;;;23.22;54.02;101167.78;5999561;28;20062;-69
2022/10/28 12:25:28;;;;;;;10.93;1.90;;;;;;;23.24;54.41;101177.34;6001354;28;20109;-68
2022/10/28 12:28:28;;;;;;;9.68;2.05;;;;;;;23.27;54.63;101182.31;5999592;28;20038;-68
2022/10/28 12:31:39;;;;;;;5.85;2.03;;;;;;;23.16;54.16;101166.75;6001264;28;20487;-68
2022/10/28 12:34:39;;;;;;;9.38;2.10;;;;;;;23.34;55.25;101172.28;5999863;28;20534;-68
2022/10/28 12:37:38;;;;;;;;;;;;;;;23.38;54.27;101170.81;6001469;28;20038;-68
2022/10/28 12:41:05;;;;;;;9.90;2.53;;;;;;;23.46;54.46;101175.13;5997909;28;19926;-68
2022/10/28 12:44:04;;;;;;;10.95;2.42;;;;;;;23.51;54.63;101173.44;6000009;28;20061;-68
2022/10/28 12:47:15;;;;;;;9.32;2.53;;;;;;;23.43;54.27;101175.56;6000772;28;20125;-68
2022/10/28 12:50:19;;;;;;;8.07;2.17;;;;;;;23.42;53.82;101173.94;5999191;28;20512;-68
2022/10/28 12:53:26;;;;;;;7.70;2.30;;;;;;;23.34;54.36;101168.75;5999441;28;20030;-68
2022/10/28 12:56:27;;;;;;;11.48;2.30;;;;;;;23.39;54.84;101177.06;5999893;28;20038;-69
2022/10/28 12:59:30;;;;;;;8.52;2.50;;;;;;;23.34;54.79;101172.28;5999273;28;20521;-68
2022/10/28 13:02:30;;;;;;;10.68;2.78;;;;;;;23.30;55.23;101176.47;5999014;28;20109;-69
2022/10/28 13:05:43;;;;;;;14.13;2.22;;;;;;;23.25;55.60;101162.75;6000678;28;20035;-68
2022/10/28 13:08:53;;;;;;;9.32;2.58;;;;;;;23.29;55.57;101169.38;5999653;28;20045;-69
2022/10/28 13:11:49;;;;;;;11.35;2.30;;;;;;;23.40;55.50;101176.03;5999499;28;20050;-68
2022/10/28 13:14:56;;;;;;;7.15;1.83;;;;;;;23.47;55.30;101174.94;5998665;28;20746;-68
2022/10/28 13:17:54;;;;;;;7.28;2.15;;;;;;;23.49;55.41;101180.13;5994462;28;20034;-68
2022/10/28 13:21:27;;;;;;;8.35;2.40;;;;;;;23.46;55.61;101159.72;5997292;28;20035;-68
2022/10/28 13:24:31;;;;;;;8.00;2.22;;;;;;;23.45;56.50;101160.78;5997979;28;20053;-69
2022/10/28 13:27:26;;;;;;;8.60;2.75;;;;;;;23.36;55.89;101151.25;5994177;28;20356;-68
2022/10/28 13:30:22;;;;;;;13.93;2.58;;;;;;;23.33;54.97;101142.72;5994938;28;20051;-68
2022/10/28 13:33:22;;;;;;;8.93;2.45;;;;;;;23.33;55.41;101154.38;5994981;28;20114;-68
2022/10/28 13:36:17;;;;;;;13.82;2.70;;;;;;;23.25;55.23;101157.34;5994613;28;20031;-69
2022/10/28 13:39:30;;;;;;;11.93;2.55;;;;;;;23.18;55.29;101159.28;5996034;28;20578;-68
2022/10/28 13:42:30;;;;;;;10.70;2.47;;;;;;;23.08;55.72;101158.91;5996108;28;20030;-68
2022/10/28 13:45:48;;;;;;;10.60;2.42;;;;;;;23.10;55.34;101156.84;5996094;28;20022;-68
2022/10/28 13:48:45;;;;;;;11.88;2.90;;;;;;;22.85;56.05;101139.69;5996539;28;20031;-68
2022/10/28 13:51:45;;;;;;;7.72;2.17;;;;;;;22.75;56.54;101145.53;5997771;28;20035;-68
2022/10/28 13:54:43;;;;;;;6.95;2.20;;;;;;;22.62;57.10;101150.13;5999281;28;20027;-68
2022/10/28 13:57:42;;;;;;;8.20;2.08;;;;;;;22.50;56.85;101139.19;5998836;28;20042;-69
2022/10/28 14:00:37;;;;;;;8.15;2.13;;;;;;;22.67;56.36;101145.78;5997977;28;20027;-67